DLA3AJ EDDF-ELLX
Flight info
| Callsign | DLA3AJ |
|---|---|
| Flight time | 0h 23m |
| Altitude | 18000 |
| Route | SOBRA2U SOBRA Y180 BITBU Z110 BETEX |
| Aircraft | E190/M-SDE2E3GIJ1RWY/LB1 |
Departure
| Time | 2026-04-17 11:19 |
|---|---|
| Airport | Frankfurt Main Airport (EDDF) |
Arrival
| Time | 2026-04-17 11:42 |
|---|---|
| Airport | Luxembourg-Findel International Airport (ELLX) |
| Time | Latitude | Longitude | Altitude | Speed | Heading |
|---|---|---|---|---|---|
| 2026-04-17 10:33 | 50.04929 | 8.58942 | 361 ft | 0 kts | 160° |
| 2026-04-17 11:03 | 50.04932 | 8.58940 | 364 ft | 3 kts | 160° |
| 2026-04-17 11:03 | 50.04956 | 8.58926 | 362 ft | 4 kts | 160° |
| 2026-04-17 11:04 | 50.04979 | 8.58917 | 361 ft | 4 kts | 208° |
| 2026-04-17 11:04 | 50.04994 | 8.58944 | 359 ft | 2 kts | 249° |
| 2026-04-17 11:04 | 50.05001 | 8.58976 | 359 ft | 4 kts | 250° |
| 2026-04-17 11:04 | 50.05004 | 8.58988 | 359 ft | 0 kts | 250° |
| 2026-04-17 11:07 | 50.05001 | 8.58974 | 358 ft | 2 kts | 249° |
| 2026-04-17 11:08 | 50.04988 | 8.58920 | 365 ft | 8 kts | 249° |
| 2026-04-17 11:08 | 50.04966 | 8.58827 | 360 ft | 10 kts | 250° |
| 2026-04-17 11:08 | 50.04938 | 8.58709 | 358 ft | 13 kts | 250° |
| 2026-04-17 11:08 | 50.04904 | 8.58567 | 360 ft | 15 kts | 250° |
| 2026-04-17 11:09 | 50.04865 | 8.58402 | 358 ft | 17 kts | 249° |
| 2026-04-17 11:09 | 50.04821 | 8.58220 | 361 ft | 19 kts | 250° |
| 2026-04-17 11:09 | 50.04772 | 8.58014 | 363 ft | 21 kts | 248° |
| 2026-04-17 11:10 | 50.04637 | 8.57602 | 360 ft | 23 kts | 249° |
| 2026-04-17 11:10 | 50.04581 | 8.57365 | 356 ft | 24 kts | 250° |
| 2026-04-17 11:10 | 50.04521 | 8.57117 | 356 ft | 25 kts | 249° |
| 2026-04-17 11:10 | 50.04460 | 8.56862 | 361 ft | 25 kts | 250° |
| 2026-04-17 11:11 | 50.04398 | 8.56600 | 362 ft | 27 kts | 250° |
| 2026-04-17 11:11 | 50.04331 | 8.56322 | 357 ft | 27 kts | 250° |
| 2026-04-17 11:11 | 50.04293 | 8.56161 | 356 ft | 24 kts | 250° |
| 2026-04-17 11:11 | 50.04214 | 8.55827 | 352 ft | 26 kts | 250° |
| 2026-04-17 11:12 | 50.04174 | 8.55665 | 354 ft | 21 kts | 249° |
| 2026-04-17 11:12 | 50.04122 | 8.55446 | 354 ft | 22 kts | 249° |
| 2026-04-17 11:12 | 50.04067 | 8.55220 | 357 ft | 22 kts | 249° |
| 2026-04-17 11:12 | 50.04013 | 8.54990 | 353 ft | 23 kts | 250° |
| 2026-04-17 11:13 | 50.03954 | 8.54744 | 352 ft | 26 kts | 250° |
| 2026-04-17 11:13 | 50.03895 | 8.54499 | 354 ft | 23 kts | 249° |
| 2026-04-17 11:13 | 50.03821 | 8.54283 | 352 ft | 18 kts | 235° |
| 2026-04-17 11:13 | 50.03771 | 8.54102 | 343 ft | 19 kts | 250° |
| 2026-04-17 11:14 | 50.03722 | 8.53899 | 349 ft | 21 kts | 249° |
| 2026-04-17 11:14 | 50.03669 | 8.53677 | 341 ft | 23 kts | 250° |
| 2026-04-17 11:14 | 50.03618 | 8.53475 | 336 ft | 18 kts | 249° |
| 2026-04-17 11:14 | 50.03572 | 8.53280 | 336 ft | 20 kts | 250° |
| 2026-04-17 11:15 | 50.03525 | 8.53085 | 333 ft | 16 kts | 249° |
| 2026-04-17 11:15 | 50.03491 | 8.52948 | 335 ft | 10 kts | 249° |
| 2026-04-17 11:15 | 50.03465 | 8.52847 | 332 ft | 11 kts | 245° |
| 2026-04-17 11:15 | 50.03440 | 8.52756 | 330 ft | 8 kts | 249° |
| 2026-04-17 11:16 | 50.03434 | 8.52733 | 334 ft | 0 kts | 249° |
| 2026-04-17 11:16 | 50.03433 | 8.52729 | 334 ft | 2 kts | 249° |
| 2026-04-17 11:16 | 50.03422 | 8.52686 | 331 ft | 6 kts | 249° |
| 2026-04-17 11:17 | 50.03399 | 8.52613 | 331 ft | 8 kts | 229° |
| 2026-04-17 11:17 | 50.03358 | 8.52595 | 334 ft | 0 kts | 178° |
| 2026-04-17 11:17 | 50.03357 | 8.52595 | 334 ft | 1 kts | 178° |
| 2026-04-17 11:18 | 50.03345 | 8.52596 | 334 ft | 12 kts | 178° |
| 2026-04-17 11:18 | 50.03024 | 8.52597 | 330 ft | 81 kts | 180° |
| 2026-04-17 11:18 | 50.02245 | 8.52604 | 335 ft | 141 kts | 179° |
| 2026-04-17 11:18 | 50.01206 | 8.52619 | 764 ft | 153 kts | 179° |
| 2026-04-17 11:19 | 50.00085 | 8.52647 | 1370 ft | 168 kts | 179° |
| 2026-04-17 11:19 | 49.98853 | 8.52708 | 2002 ft | 184 kts | 177° |
| 2026-04-17 11:19 | 49.97521 | 8.52813 | 2614 ft | 200 kts | 176° |
| 2026-04-17 11:19 | 49.96059 | 8.52931 | 3179 ft | 219 kts | 176° |
| 2026-04-17 11:20 | 49.94500 | 8.53046 | 3845 ft | 232 kts | 176° |
| 2026-04-17 11:20 | 49.92880 | 8.53153 | 4722 ft | 234 kts | 177° |
| 2026-04-17 11:20 | 49.91251 | 8.53250 | 5640 ft | 234 kts | 177° |
| 2026-04-17 11:20 | 49.89620 | 8.53358 | 6528 ft | 235 kts | 177° |
| 2026-04-17 11:21 | 49.87975 | 8.53463 | 7315 ft | 239 kts | 180° |
| 2026-04-17 11:21 | 49.86258 | 8.53140 | 7750 ft | 258 kts | 195° |
| 2026-04-17 11:21 | 49.84610 | 8.51880 | 8206 ft | 275 kts | 220° |
| 2026-04-17 11:21 | 49.83483 | 8.49461 | 8806 ft | 283 kts | 248° |
| 2026-04-17 11:22 | 49.83153 | 8.46448 | 9539 ft | 287 kts | 271° |
| 2026-04-17 11:22 | 49.83333 | 8.43364 | 10299 ft | 289 kts | 276° |
| 2026-04-17 11:22 | 49.83594 | 8.40178 | 10692 ft | 308 kts | 276° |
| 2026-04-17 11:22 | 49.83880 | 8.36794 | 10999 ft | 326 kts | 277° |
| 2026-04-17 11:23 | 49.84201 | 8.33249 | 11441 ft | 337 kts | 278° |
| 2026-04-17 11:23 | 49.84539 | 8.29693 | 12123 ft | 339 kts | 278° |
| 2026-04-17 11:23 | 49.84862 | 8.26066 | 12857 ft | 340 kts | 278° |
| 2026-04-17 11:23 | 49.85163 | 8.22428 | 13537 ft | 342 kts | 277° |
| 2026-04-17 11:24 | 49.85456 | 8.18768 | 14200 ft | 344 kts | 277° |
| 2026-04-17 11:24 | 49.85759 | 8.15078 | 14841 ft | 347 kts | 278° |
| 2026-04-17 11:24 | 49.86070 | 8.11362 | 15452 ft | 349 kts | 278° |
| 2026-04-17 11:24 | 49.86390 | 8.07616 | 16054 ft | 352 kts | 278° |
| 2026-04-17 11:25 | 49.86725 | 8.03848 | 16635 ft | 354 kts | 278° |
| 2026-04-17 11:25 | 49.87070 | 8.00059 | 17187 ft | 356 kts | 279° |
| 2026-04-17 11:25 | 49.87425 | 7.96245 | 17682 ft | 358 kts | 279° |
| 2026-04-17 11:25 | 49.87790 | 7.92402 | 18144 ft | 361 kts | 279° |
| 2026-04-17 11:26 | 49.88165 | 7.88589 | 18334 ft | 351 kts | 280° |
| 2026-04-17 11:26 | 49.88567 | 7.84981 | 18300 ft | 338 kts | 281° |
| 2026-04-17 11:26 | 49.88993 | 7.81379 | 18255 ft | 333 kts | 281° |
| 2026-04-17 11:26 | 49.89414 | 7.77851 | 18221 ft | 332 kts | 281° |
| 2026-04-17 11:27 | 49.89824 | 7.74372 | 18227 ft | 332 kts | 281° |
| 2026-04-17 11:27 | 49.90235 | 7.70854 | 18242 ft | 331 kts | 281° |
| 2026-04-17 11:27 | 49.90644 | 7.67326 | 18246 ft | 332 kts | 281° |
| 2026-04-17 11:27 | 49.91051 | 7.63800 | 18244 ft | 332 kts | 281° |
| 2026-04-17 11:28 | 49.91374 | 7.60245 | 18226 ft | 334 kts | 271° |
| 2026-04-17 11:28 | 49.91187 | 7.56655 | 18241 ft | 335 kts | 265° |
| 2026-04-17 11:28 | 49.90903 | 7.53069 | 18225 ft | 335 kts | 264° |
| 2026-04-17 11:28 | 49.90605 | 7.49432 | 17474 ft | 345 kts | 264° |
| 2026-04-17 11:29 | 49.90287 | 7.45710 | 16622 ft | 348 kts | 264° |
| 2026-04-17 11:29 | 49.89979 | 7.42073 | 16110 ft | 341 kts | 264° |
| 2026-04-17 11:29 | 49.89681 | 7.38468 | 15579 ft | 334 kts | 264° |
| 2026-04-17 11:29 | 49.89390 | 7.34931 | 15138 ft | 326 kts | 264° |
| 2026-04-17 11:30 | 49.89106 | 7.31487 | 14710 ft | 319 kts | 263° |
| 2026-04-17 11:30 | 49.88824 | 7.28109 | 14276 ft | 313 kts | 263° |
| 2026-04-17 11:30 | 49.88549 | 7.24801 | 13847 ft | 307 kts | 263° |
| 2026-04-17 11:30 | 49.88279 | 7.21552 | 13428 ft | 301 kts | 263° |
| 2026-04-17 11:31 | 49.88013 | 7.18394 | 13379 ft | 285 kts | 263° |
| 2026-04-17 11:31 | 49.87765 | 7.15352 | 13334 ft | 290 kts | 263° |
| 2026-04-17 11:31 | 49.87509 | 7.12213 | 12986 ft | 295 kts | 263° |
| 2026-04-17 11:31 | 49.87247 | 7.09056 | 12647 ft | 294 kts | 263° |
| 2026-04-17 11:32 | 49.86986 | 7.05932 | 12336 ft | 292 kts | 263° |
| 2026-04-17 11:32 | 49.86726 | 7.02820 | 12028 ft | 290 kts | 263° |
| 2026-04-17 11:32 | 49.86468 | 6.99733 | 11727 ft | 288 kts | 263° |
| 2026-04-17 11:32 | 49.86211 | 6.96653 | 11424 ft | 288 kts | 263° |
| 2026-04-17 11:33 | 49.85945 | 6.93578 | 11007 ft | 289 kts | 261° |
| 2026-04-17 11:33 | 49.85299 | 6.90559 | 10140 ft | 301 kts | 246° |
| 2026-04-17 11:33 | 49.84406 | 6.87669 | 9587 ft | 287 kts | 243° |
| 2026-04-17 11:33 | 49.83549 | 6.84936 | 9311 ft | 282 kts | 244° |
| 2026-04-17 11:34 | 49.82705 | 6.82206 | 9193 ft | 277 kts | 244° |
| 2026-04-17 11:34 | 49.81864 | 6.79462 | 8644 ft | 289 kts | 243° |
| 2026-04-17 11:34 | 49.81013 | 6.76682 | 8314 ft | 282 kts | 244° |
| 2026-04-17 11:34 | 49.80182 | 6.73947 | 7952 ft | 278 kts | 244° |
| 2026-04-17 11:35 | 49.79376 | 6.71300 | 7648 ft | 272 kts | 244° |
| 2026-04-17 11:35 | 49.78575 | 6.68676 | 7343 ft | 268 kts | 243° |
| 2026-04-17 11:35 | 49.77786 | 6.66092 | 7036 ft | 263 kts | 244° |
| 2026-04-17 11:35 | 49.77006 | 6.63518 | 6463 ft | 266 kts | 244° |
| 2026-04-17 11:36 | 49.76235 | 6.60963 | 6167 ft | 256 kts | 244° |
| 2026-04-17 11:36 | 49.75496 | 6.58552 | 5850 ft | 241 kts | 243° |
| 2026-04-17 11:36 | 49.74790 | 6.56274 | 5601 ft | 229 kts | 243° |
| 2026-04-17 11:36 | 49.74119 | 6.54074 | 5368 ft | 224 kts | 244° |
| 2026-04-17 11:37 | 49.73469 | 6.51925 | 5080 ft | 217 kts | 243° |
| 2026-04-17 11:37 | 49.72839 | 6.49849 | 4842 ft | 209 kts | 244° |
| 2026-04-17 11:37 | 49.72233 | 6.47855 | 4588 ft | 202 kts | 243° |
| 2026-04-17 11:37 | 49.71636 | 6.45921 | 4325 ft | 197 kts | 243° |
| 2026-04-17 11:38 | 49.71036 | 6.44061 | 4113 ft | 190 kts | 240° |
| 2026-04-17 11:38 | 49.70418 | 6.42313 | 3917 ft | 182 kts | 241° |
| 2026-04-17 11:38 | 49.69823 | 6.40596 | 3693 ft | 183 kts | 240° |
| 2026-04-17 11:38 | 49.69200 | 6.38912 | 3480 ft | 178 kts | 239° |
| 2026-04-17 11:39 | 49.68597 | 6.37284 | 3220 ft | 170 kts | 239° |
| 2026-04-17 11:39 | 49.68029 | 6.35744 | 3000 ft | 161 kts | 240° |
| 2026-04-17 11:39 | 49.67489 | 6.34268 | 2782 ft | 156 kts | 240° |
| 2026-04-17 11:39 | 49.66958 | 6.32837 | 2581 ft | 151 kts | 240° |
| 2026-04-17 11:40 | 49.66454 | 6.31471 | 2366 ft | 141 kts | 240° |
| 2026-04-17 11:40 | 49.65984 | 6.30188 | 2194 ft | 135 kts | 241° |
| 2026-04-17 11:40 | 49.65518 | 6.28924 | 2052 ft | 138 kts | 240° |
| 2026-04-17 11:40 | 49.65036 | 6.27641 | 1853 ft | 139 kts | 240° |
| 2026-04-17 11:41 | 49.64557 | 6.26325 | 1671 ft | 142 kts | 240° |
| 2026-04-17 11:41 | 49.64065 | 6.24986 | 1460 ft | 145 kts | 240° |
| 2026-04-17 11:41 | 49.63568 | 6.23647 | 1266 ft | 142 kts | 240° |
| 2026-04-17 11:41 | 49.63110 | 6.22405 | 1211 ft | 116 kts | 240° |
| 2026-04-17 11:42 | 49.62796 | 6.21559 | 1221 ft | 71 kts | 240° |
| 2026-04-17 11:42 | 49.62651 | 6.21053 | 1234 ft | 41 kts | 261° |
| 2026-04-17 11:42 | 49.62653 | 6.20806 | 1239 ft | 16 kts | 287° |
| 2026-04-17 11:42 | 49.62744 | 6.20742 | 1237 ft | 16 kts | 14° |
| 2026-04-17 11:43 | 49.62818 | 6.20821 | 1237 ft | 13 kts | 57° |
| 2026-04-17 11:43 | 49.62868 | 6.20974 | 1232 ft | 18 kts | 64° |
| 2026-04-17 11:43 | 49.62926 | 6.21161 | 1232 ft | 17 kts | 64° |
| 2026-04-17 11:43 | 49.62978 | 6.21328 | 1229 ft | 14 kts | 64° |
| 2026-04-17 11:44 | 49.63038 | 6.21400 | 1228 ft | 11 kts | 342° |
| 2026-04-17 11:44 | 49.63102 | 6.21346 | 1230 ft | 10 kts | 330° |
| 2026-04-17 11:44 | 49.63170 | 6.21285 | 1230 ft | 12 kts | 330° |
| 2026-04-17 11:44 | 49.63216 | 6.21267 | 1229 ft | 5 kts | 43° |
| 2026-04-17 11:45 | 49.63233 | 6.21314 | 1228 ft | 2 kts | 60° |
| 2026-04-17 11:45 | 49.63234 | 6.21316 | 1228 ft | 0 kts | 60° |